Texola, OK (73668)

4:19 PM CDT on August 20, 2014 (GMT -0500)
Western Oklahoma | Change Station
CLOSE
Current Station
Personal Weather Station
Location: Erick, OK
Elevation: 1978 ft
Nearby Weather Stations

Elev 1978 ft 35.25 °N, 99.79 °W | Updated 15 seconds ago

Clear
Clear
99.3 °F
Feels Like 103 °F
N
2.5
Wind Variable Wind from SW
Gusts 4.9 mph

Today
High -- | Low -- °F
--% Chance of Precip.
Yesterday
High -- | Low -- °F
Precip. -- in
7:03 AM 8:22 PM
Waning Crescent, 19% visible
Pressure 29.78 in
Visibility 10.0 miles
Clouds Clear
Heat Index 103 °F
Dew Point 65 °F
Humidity 33%
Rainfall 0.00 in
Snow Depth Not available.
UV 8 out of 12
Pollen 8.80 out of 12
Air Quality Not available.
Flu Activity Not available.
METAR KCSM 202053Z 18018G32KT 10SM CLR 37/14 A2987 RMK AO2 PK WND 19032/2047 SLP084 T03720144 58014

More Conditions Fewer Conditions

Pressure 29.78 in
Visibility 10.0 miles
Clouds Clear
Heat Index 103 °F
Dew Point 65 °F
Humidity 33%
Rainfall 0.00 in
Snow Depth Not available.
UV 8 out of 12
Pollen 8.80 out of 12
Air Quality Not available.
Flu Activity Not available.
METAR KCSM 202053Z 18018G32KT 10SM CLR 37/14 A2987 RMK AO2 PK WND 19032/2047 SLP084 T03720144 58014

More Conditions Fewer Conditions

10-Day Weather Forecast

Almanac

Astronomy

Aug. 20, 2014 Rise Set
Actual Time 7:03 AM CDT 8:22 PM CDT
Civil Twilight 6:36 AM CDT 8:48 PM CDT
Nautical Twilight 6:05 AM CDT 9:20 PM CDT
Astronomical Twilight 5:31 AM CDT 9:53 PM CDT
Moon 2:48 AM CDT 5:04 PM CDT
Length of Visible Light 14h 12m
Length of Day
13h 19m
Tomorrow will be 2m 0s shorter.
Waning Crescent, 19% of the Moon is Illuminated
Today
Waning Crescent
Aug 25
New
Sep 2
First Quarter
Sep 8
Full
Sep 15
Last Quarter

Today's Extremes

State Highs State Lows

Community

WunderPhotos

Upload Photos

1,745,762 photos uploaded!

WunderBlogs® & News

Nearby

Snow Depth

Station Depth Elevation
No new snow has been reported.

Earthquake Activity

City Distance Mag. Time & Date
Helena, Oklahoma 136 miles 2.7 1:19 AM CDT
2014-08-14
Minimum magnitude displayed is 2.5.

Coastal Water Temperatures

Place Temperature
No Stations Reporting

Nearby Weather Stations